Time;durP1;ratioP1;P1;durP2;ratioP2;P2;SDS_P1;SDS_P2;PMS_P1;PMS_P2;Temp;Humidity;BMP_temperature;BMP_pressure;BME280_temperature;BME280_humidity;BME280_pressure;Samples;Min_cycle;Max_cycle;Signal;HPM_P1;HPM_P2
2023/08/24 00:01:30;;;;;;;6.72;3.97;;;;;;;24.00;81.45;94691.22;4922592;29;20048;-85
2023/08/24 00:03:56;;;;;;;7.20;4.00;;;;;;;23.43;84.32;94698.56;4922056;29;20036;-85
2023/08/24 00:06:21;;;;;;;9.98;4.05;;;;;;;23.39;86.70;94708.41;4922525;29;20334;-85
2023/08/24 00:08:47;;;;;;;6.97;4.18;;;;;;;23.59;85.72;94698.59;4921991;29;20040;-85
2023/08/24 00:11:14;;;;;;;11.90;4.22;;;;;;;23.68;83.79;94687.75;4924058;29;20111;-85
2023/08/24 00:13:46;;;;;;;6.95;4.22;;;;;;;23.64;82.75;94694.88;4926472;29;20204;-85
2023/08/24 00:16:11;;;;;;;7.72;4.55;;;;;;;23.84;84.57;94693.91;4926529;29;20031;-85
2023/08/24 00:18:37;;;;;;;5.95;4.15;;;;;;;23.73;83.21;94698.97;4925982;29;20103;-85
2023/08/24 00:21:02;;;;;;;6.57;4.03;;;;;;;23.61;79.90;94693.69;4943047;29;20042;-85
2023/08/24 00:23:28;;;;;;;7.03;3.95;;;;;;;23.55;81.70;94689.72;4925734;29;20043;-85
2023/08/24 00:25:53;;;;;;;7.93;4.07;;;;;;;23.52;81.60;94693.06;4925605;29;20433;-85
2023/08/24 00:28:19;;;;;;;7.38;4.20;;;;;;;23.43;82.32;94695.91;4943002;29;20042;-85
2023/08/24 00:30:44;;;;;;;5.18;3.83;;;;;;;23.40;81.01;94693.91;4942832;29;20107;-85
2023/08/24 00:33:09;;;;;;;6.05;3.90;;;;;;;23.53;80.51;94695.41;4942801;29;20162;-85
2023/08/24 00:35:35;;;;;;;5.65;3.90;;;;;;;23.66;78.43;94689.97;4925803;29;20044;-85
2023/08/24 00:38:00;;;;;;;9.23;4.28;;;;;;;23.60;79.83;94696.72;4925564;29;20441;-85
2023/08/24 00:40:26;;;;;;;7.72;3.83;;;;;;;23.59;77.44;94690.56;4909667;29;20039;-85
2023/08/24 00:42:51;;;;;;;6.10;3.85;;;;;;;23.28;84.34;94698.19;4931816;29;20070;-85
2023/08/24 00:45:17;;;;;;;11.52;4.03;;;;;;;23.21;83.16;94689.94;4944680;29;20330;-85
2023/08/24 00:47:44;;;;;;;11.38;3.78;;;;;;;23.24;79.58;94691.94;4928572;29;20035;-85
2023/08/24 00:50:10;;;;;;;9.95;4.38;;;;;;;23.11;79.57;94695.78;4944359;29;20039;-85
2023/08/24 00:52:40;;;;;;;4.65;3.92;;;;;;;22.99;81.62;94697.38;4961595;29;20101;-85
2023/08/24 00:55:07;;;;;;;7.68;4.10;;;;;;;22.82;86.33;94697.66;4928927;29;20038;-85
2023/08/24 00:57:32;;;;;;;5.95;3.80;;;;;;;22.66;84.25;94689.56;4928118;29;20070;-85
2023/08/24 01:00:00;;;;;;;4.65;3.47;;;;;;;22.78;82.08;94696.75;4928100;29;20393;-85
2023/08/24 01:02:25;;;;;;;7.45;3.90;;;;;;;22.91;81.43;94689.50;4943988;29;20035;-85
2023/08/24 01:04:51;;;;;;;5.75;3.88;;;;;;;22.91;82.49;94690.25;4943219;29;20046;-85
2023/08/24 01:07:17;;;;;;;6.82;3.60;;;;;;;22.81;83.72;94690.72;4960804;29;20044;-85
2023/08/24 01:09:42;;;;;;;10.68;4.10;;;;;;;22.80;86.30;94694.50;4944000;29;20462;-85
2023/08/24 01:12:24;;;;;;;7.75;4.00;;;;;;;22.77;89.67;94695.19;4944018;29;20043;-85
2023/08/24 01:15:05;;;;;;;10.13;4.70;;;;;;;23.08;88.86;94691.91;4961230;29;20068;-85
2023/08/24 01:17:31;;;;;;;4.97;4.05;;;;;;;23.15;89.90;94686.72;4961080;29;20066;-85
2023/08/24 01:19:58;;;;;;;5.95;4.60;;;;;;;23.07;91.67;94692.22;4944050;29;20114;-85
2023/08/24 01:22:26;;;;;;;9.15;4.72;;;;;;;23.00;92.39;94690.91;4942681;29;20037;-85
2023/08/24 01:25:04;;;;;;;11.38;5.38;;;;;;;22.98;92.84;94684.34;4961079;29;20166;-85
2023/08/24 01:27:31;;;;;;;10.93;4.22;;;;;;;22.87;94.36;94681.38;4960881;29;20049;-85
2023/08/24 01:29:57;;;;;;;6.93;4.97;;;;;;;22.68;94.82;94677.44;4943483;29;20062;-85
2023/08/24 01:32:22;;;;;;;5.07;3.70;;;;;;;22.83;90.79;94673.25;4960915;29;20039;-85
2023/08/24 01:34:48;;;;;;;8.05;4.07;;;;;;;22.99;89.12;94678.69;4943434;29;20039;-85
2023/08/24 01:37:13;;;;;;;8.02;4.20;;;;;;;23.00;88.18;94680.22;4943321;29;20048;-85
2023/08/24 01:39:54;;;;;;;10.32;4.15;;;;;;;22.94;85.63;94673.56;4943559;29;20125;-85
2023/08/24 01:42:22;;;;;;;8.75;4.85;;;;;;;23.03;80.64;94681.44;4943342;29;20035;-85
2023/08/24 01:44:52;;;;;;;6.93;4.03;;;;;;;22.96;82.36;94670.56;4943544;29;20039;-85
2023/08/24 01:47:18;;;;;;;4.22;3.22;;;;;;;22.99;80.99;94673.34;4942504;29;20043;-85
2023/08/24 01:49:44;;;;;;;9.82;3.88;;;;;;;22.99;80.91;94672.53;4943299;29;20066;-85
2023/08/24 01:52:10;;;;;;;4.65;3.53;;;;;;;22.89;80.77;94676.47;4943146;29;20043;-85
2023/08/24 01:54:35;;;;;;;8.35;3.78;;;;;;;22.92;80.74;94672.34;4960528;29;20086;-85
2023/08/24 01:57:01;;;;;;;5.63;3.92;;;;;;;22.90;78.31;94679.94;4943150;29;20352;-85
2023/08/24 01:59:27;;;;;;;6.38;3.50;;;;;;;22.85;79.84;94676.38;4943251;29;20035;-85
2023/08/24 02:01:52;;;;;;;4.90;3.65;;;;;;;22.85;79.99;94684.38;4943330;29;20038;-85
2023/08/24 02:04:17;;;;;;;5.15;3.72;;;;;;;22.91;81.94;94686.84;4960271;29;20043;-85
2023/08/24 02:06:43;;;;;;;7.35;3.72;;;;;;;22.78;80.95;94681.53;4960308;29;20043;-85
2023/08/24 02:09:08;;;;;;;8.80;3.88;;;;;;;22.83;81.00;94680.50;4942944;29;20326;-85
2023/08/24 02:11:33;;;;;;;5.68;3.35;;;;;;;22.94;80.71;94684.25;4943079;29;20078;-85
2023/08/24 02:13:59;;;;;;;8.73;3.28;;;;;;;22.78;78.29;94672.72;4942761;29;20035;-85
2023/08/24 02:16:24;;;;;;;5.85;3.50;;;;;;;22.79;76.43;94677.72;4942683;29;20465;-85
2023/08/24 02:18:50;;;;;;;11.98;3.58;;;;;;;22.59;81.04;94671.44;4942488;29;20174;-85
2023/08/24 02:21:16;;;;;;;6.13;3.35;;;;;;;22.52;79.45;94680.00;4942776;29;20444;-85
2023/08/24 02:23:41;;;;;;;6.68;3.30;;;;;;;22.48;76.38;94673.78;4942572;29;20035;-85
2023/08/24 02:26:07;;;;;;;6.07;3.15;;;;;;;22.67;78.63;94673.22;4959863;29;20492;-85
2023/08/24 02:28:33;;;;;;;9.30;3.58;;;;;;;22.55;73.12;94675.91;4942300;29;20089;-85
2023/08/24 02:31:03;;;;;;;5.18;3.08;;;;;;;22.67;73.80;94673.22;4942466;29;20035;-85
2023/08/24 02:33:29;;;;;;;6.28;3.20;;;;;;;22.65;74.77;94675.41;4942497;29;20147;-85
2023/08/24 02:35:55;;;;;;;7.53;3.13;;;;;;;22.56;73.83;94667.53;4959493;29;20032;-85
2023/08/24 02:38:20;;;;;;;8.60;3.65;;;;;;;22.59;75.65;94674.88;4942216;29;20034;-85
2023/08/24 02:40:45;;;;;;;7.15;3.47;;;;;;;22.58;74.69;94672.53;4942415;29;20038;-85
2023/08/24 02:43:12;;;;;;;7.40;3.67;;;;;;;22.60;72.18;94672.97;4942526;29;20039;-85
2023/08/24 02:45:37;;;;;;;4.95;3.47;;;;;;;22.60;73.67;94675.66;4942235;29;20126;-85
2023/08/24 02:48:03;;;;;;;5.57;3.38;;;;;;;22.55;73.37;94678.56;4942347;29;20071;-85
2023/08/24 02:50:29;;;;;;;9.73;3.50;;;;;;;22.62;73.08;94684.09;4942325;29;20045;-85
2023/08/24 02:52:54;;;;;;;7.68;3.70;;;;;;;22.71;73.59;94684.75;4942000;29;20130;-85
2023/08/24 02:55:19;;;;;;;7.47;3.60;;;;;;;22.62;78.38;94678.00;4959410;29;20043;-85
2023/08/24 02:57:45;;;;;;;8.95;3.58;;;;;;;22.53;76.09;94678.13;4942122;29;20035;-85
2023/08/24 03:00:13;;;;;;;6.28;3.42;;;;;;;22.54;77.29;94682.34;4959330;29;20163;-85
2023/08/24 03:02:38;;;;;;;9.00;3.78;;;;;;;22.61;75.54;94679.88;4942395;29;20047;-85
2023/08/24 03:05:05;;;;;;;12.20;3.97;;;;;;;22.49;77.53;94678.00;4941740;29;20330;-85
2023/08/24 03:07:30;;;;;;;5.05;3.35;;;;;;;22.43;76.40;94682.78;4942054;29;20043;-85
2023/08/24 03:09:56;;;;;;;7.30;3.70;;;;;;;22.58;77.05;94677.88;4941685;29;20045;-86
2023/08/24 03:12:21;;;;;;;5.95;3.40;;;;;;;22.51;77.21;94673.09;4942345;29;20031;-85
2023/08/24 03:14:46;;;;;;;5.22;3.38;;;;;;;22.53;77.20;94675.47;4941725;29;20031;-85
2023/08/24 03:17:12;;;;;;;7.53;4.13;;;;;;;22.49;81.67;94677.22;4941819;29;20495;-85
2023/08/24 03:19:37;;;;;;;6.40;3.90;;;;;;;22.45;81.86;94677.88;4941916;29;20035;-85
2023/08/24 03:22:03;;;;;;;7.22;3.95;;;;;;;22.27;82.59;94676.56;4959012;29;20035;-85
2023/08/24 03:24:28;;;;;;;5.47;3.35;;;;;;;22.31;80.52;94672.88;4958980;29;20034;-85
2023/08/24 03:26:53;;;;;;;6.05;3.80;;;;;;;22.46;80.42;94668.75;4941643;29;20433;-85
2023/08/24 03:29:19;;;;;;;6.78;3.90;;;;;;;22.49;81.28;94670.00;4958784;29;20045;-85
2023/08/24 03:31:44;;;;;;;6.45;3.78;;;;;;;22.38;81.13;94672.34;4958857;29;20468;-85
2023/08/24 03:34:10;;;;;;;5.15;3.50;;;;;;;22.16;83.19;94668.19;4942050;29;20038;-85
2023/08/24 03:36:35;;;;;;;6.13;3.72;;;;;;;22.27;80.03;94668.56;4958857;29;20457;-84
2023/08/24 03:39:01;;;;;;;6.45;3.50;;;;;;;22.27;81.39;94669.31;4947870;29;20039;-85
2023/08/24 03:41:26;;;;;;;7.97;3.90;;;;;;;22.25;78.99;94673.44;4939285;29;20027;-85
2023/08/24 03:43:51;;;;;;;8.85;3.65;;;;;;;22.33;79.43;94677.88;4939373;29;20106;-84
2023/08/24 03:46:17;;;;;;;5.88;3.40;;;;;;;22.27;78.20;94676.56;4939015;29;20039;-85
2023/08/24 03:48:42;;;;;;;6.75;3.58;;;;;;;22.38;76.41;94674.22;4939359;29;20046;-85
2023/08/24 03:51:08;;;;;;;4.28;2.90;;;;;;;22.50;76.22;94681.44;4939577;29;20031;-84
2023/08/24 03:53:33;;;;;;;5.20;2.88;;;;;;;22.46;71.94;94673.31;4939486;29;20067;-84
2023/08/24 03:55:59;;;;;;;4.70;2.67;;;;;;;22.70;68.40;94680.53;4939524;29;20353;-85
2023/08/24 03:58:25;;;;;;;5.28;3.03;;;;;;;22.63;66.74;94672.31;4936415;29;20042;-85
2023/08/24 04:00:50;;;;;;;5.20;2.72;;;;;;;22.55;68.83;94673.22;4958178;29;20433;-85
2023/08/24 04:03:16;;;;;;;7.68;2.55;;;;;;;22.61;67.20;94676.44;4941014;29;20031;-85
2023/08/24 04:05:42;;;;;;;9.23;2.83;;;;;;;22.41;71.24;94682.31;4941261;29;20035;-84
2023/08/24 04:08:07;;;;;;;6.35;2.70;;;;;;;22.39;71.42;94681.88;4956473;29;20035;-85
2023/08/24 04:10:33;;;;;;;5.82;2.60;;;;;;;22.41;72.63;94681.53;4941387;29;20050;-84
2023/08/24 04:12:58;;;;;;;5.72;2.80;;;;;;;22.41;72.29;94682.31;4941490;29;20460;-84
2023/08/24 04:15:24;;;;;;;3.05;2.45;;;;;;;22.27;71.54;94685.31;4940966;29;20129;-85
2023/08/24 04:17:49;;;;;;;3.63;3.03;;;;;;;22.24;75.42;94686.00;4957929;29;20045;-85
2023/08/24 04:20:15;;;;;;;6.78;2.85;;;;;;;22.24;76.00;94685.25;4941340;29;20035;-84
2023/08/24 04:22:41;;;;;;;5.00;2.88;;;;;;;22.26;75.79;94688.34;4941372;29;20135;-85
2023/08/24 04:25:07;;;;;;;4.82;3.42;;;;;;;22.24;74.73;94690.56;4958415;29;20043;-85
2023/08/24 04:27:32;;;;;;;7.13;3.05;;;;;;;22.39;71.35;94683.78;4938121;29;20038;-84
2023/08/24 04:29:58;;;;;;;4.72;3.05;;;;;;;22.38;72.72;94679.53;4921668;29;20047;-84
2023/08/24 04:32:24;;;;;;;5.53;3.05;;;;;;;22.20;73.04;94687.00;4922504;29;20039;-85
2023/08/24 04:34:49;;;;;;;10.18;2.83;;;;;;;22.01;74.77;94680.31;4940911;29;20043;-85
2023/08/24 04:37:14;;;;;;;6.65;3.08;;;;;;;21.95;75.62;94689.66;4941651;29;20046;-85
2023/08/24 04:39:40;;;;;;;5.28;3.22;;;;;;;21.94;75.53;94690.75;4940976;29;20051;-85
2023/08/24 04:42:06;;;;;;;3.60;2.67;;;;;;;21.99;74.98;94691.31;4940831;29;20069;-85
2023/08/24 04:44:31;;;;;;;5.25;3.00;;;;;;;21.91;74.94;94694.88;4958344;29;20043;-85
2023/08/24 04:46:57;;;;;;;8.15;3.08;;;;;;;21.96;76.04;94692.00;4925092;29;20327;-84
2023/08/24 04:49:23;;;;;;;10.75;3.58;;;;;;;21.87;80.93;94694.75;4958125;29;20040;-84
2023/08/24 04:51:48;;;;;;;7.78;3.45;;;;;;;21.80;80.74;94689.19;4940709;29;20031;-84
2023/08/24 04:54:14;;;;;;;9.10;3.38;;;;;;;21.75;78.92;94684.06;4958125;29;20114;-84
2023/08/24 04:56:39;;;;;;;8.95;3.25;;;;;;;21.70;75.76;94685.06;4940748;29;20394;-84
2023/08/24 04:59:05;;;;;;;4.70;2.83;;;;;;;21.84;76.15;94695.44;4960906;29;20445;-84
2023/08/24 05:01:31;;;;;;;5.18;2.80;;;;;;;21.99;77.35;94699.31;4944254;29;20070;-84
2023/08/24 05:03:57;;;;;;;4.85;2.80;;;;;;;22.10;76.00;94696.22;4944444;29;20043;-84
2023/08/24 05:06:22;;;;;;;4.40;3.03;;;;;;;22.17;75.17;94699.91;4944283;29;20074;-85
2023/08/24 05:08:48;;;;;;;3.90;2.80;;;;;;;22.33;73.26;94693.88;4944128;29;20035;-85
2023/08/24 05:11:21;;;;;;;6.00;2.60;;;;;;;22.33;70.59;94699.22;4944232;29;20045;-84
2023/08/24 05:13:47;;;;;;;5.43;2.60;;;;;;;22.49;72.98;94706.59;4944172;29;20062;-85
2023/08/24 05:16:13;;;;;;;3.92;2.40;;;;;;;22.66;72.25;94703.66;4943992;29;20043;-85
2023/08/24 05:18:39;;;;;;;8.40;2.53;;;;;;;22.61;68.93;94703.91;4928037;29;20353;-85
2023/08/24 05:21:05;;;;;;;4.38;2.70;;;;;;;22.70;71.31;94707.25;4943830;29;20046;-85
2023/08/24 05:23:32;;;;;;;4.90;2.55;;;;;;;22.76;72.81;94709.66;4944018;29;20168;-85
2023/08/24 05:25:58;;;;;;;5.20;2.33;;;;;;;22.94;71.81;94704.84;4943893;29;20504;-84
2023/08/24 05:28:28;;;;;;;4.32;2.30;;;;;;;22.86;68.38;94709.22;4943304;29;20031;-85
2023/08/24 05:30:54;;;;;;;2.88;2.10;;;;;;;23.16;69.73;94708.91;4943853;29;20067;-85
2023/08/24 05:33:20;;;;;;;3.13;2.33;;;;;;;23.27;72.13;94710.00;4943759;29;20069;-84
2023/08/24 05:35:46;;;;;;;2.75;2.10;;;;;;;23.32;72.85;94708.19;4927540;29;20376;-85
2023/08/24 05:38:12;;;;;;;3.05;2.60;;;;;;;23.33;71.36;94699.06;4960703;29;20062;-85
2023/08/24 05:40:38;;;;;;;2.22;1.90;;;;;;;23.34;64.45;94708.63;4943675;29;20066;-85
2023/08/24 05:43:04;;;;;;;4.22;2.33;;;;;;;23.69;63.81;94708.03;4943461;29;20027;-85
2023/08/24 05:45:29;;;;;;;2.20;1.90;;;;;;;23.79;63.23;94710.19;4943364;29;20043;-85
2023/08/24 05:47:55;;;;;;;4.88;2.28;;;;;;;23.99;59.83;94716.41;4960534;29;20035;-84
2023/08/24 05:50:20;;;;;;;4.93;2.40;;;;;;;24.09;63.63;94714.38;4943199;29;20086;-84
2023/08/24 05:52:46;;;;;;;6.05;2.50;;;;;;;24.21;60.31;94708.94;4943138;29;20075;-84
2023/08/24 05:55:11;;;;;;;2.47;1.92;;;;;;;24.33;59.68;94724.13;4960424;29;20094;-84
2023/08/24 05:57:37;;;;;;;3.65;2.30;;;;;;;24.50;65.74;94714.97;4943076;29;20456;-85
2023/08/24 06:00:04;;;;;;;5.95;2.50;;;;;;;24.13;70.40;94728.63;4960380;29;20042;-85
2023/08/24 06:02:29;;;;;;;6.00;2.42;;;;;;;24.29;74.23;94720.59;4943062;29;20433;-84
2023/08/24 06:04:54;;;;;;;3.33;2.33;;;;;;;24.12;69.26;94721.72;4958915;29;20034;-84
2023/08/24 06:07:21;;;;;;;7.28;2.65;;;;;;;23.93;75.51;94722.38;4955161;29;20066;-84
2023/08/24 06:09:47;;;;;;;3.67;2.60;;;;;;;23.82;80.22;94725.56;4942453;29;20042;-87
2023/08/24 06:12:12;;;;;;;3.97;2.40;;;;;;;24.11;72.32;94728.19;4943311;29;20413;-86
2023/08/24 06:14:37;;;;;;;5.20;2.90;;;;;;;24.20;76.94;94722.66;4945764;29;20099;-87
2023/08/24 06:17:03;;;;;;;3.28;2.30;;;;;;;24.43;75.68;94723.59;4941097;29;20046;-86
2023/08/24 06:19:28;;;;;;;7.07;2.60;;;;;;;24.65;74.62;94732.09;4923680;29;20148;-87
2023/08/24 06:21:55;;;;;;;5.28;2.05;;;;;;;24.86;73.14;94725.72;4923958;29;20031;-87
2023/08/24 06:24:20;;;;;;;6.43;2.50;;;;;;;24.98;72.76;94736.31;4941062;29;20376;-86
2023/08/24 06:26:45;;;;;;;5.43;2.40;;;;;;;25.12;72.84;94733.13;4923784;29;20027;-86
2023/08/24 06:29:11;;;;;;;6.10;2.60;;;;;;;25.20;74.02;94728.69;4923772;29;20091;-86
2023/08/24 06:31:36;;;;;;;3.05;2.20;;;;;;;25.10;75.58;94729.25;4940562;29;20508;-86
2023/08/24 06:34:02;;;;;;;3.50;2.10;;;;;;;25.31;73.46;94718.16;4923504;29;20040;-86
2023/08/24 06:36:28;;;;;;;5.78;2.13;;;;;;;25.40;78.51;94721.41;4940564;29;20066;-86
2023/08/24 06:38:53;;;;;;;3.00;2.22;;;;;;;25.57;80.33;94721.38;4940187;29;20030;-86
2023/08/24 06:41:19;;;;;;;2.85;2.40;;;;;;;25.59;80.93;94716.44;4942013;29;20121;-87
2023/08/24 06:43:45;;;;;;;7.45;2.75;;;;;;;25.61;79.05;94722.22;4942529;29;20043;-87
2023/08/24 06:46:10;;;;;;;7.38;2.75;;;;;;;25.68;79.08;94716.97;4959598;29;20035;-88
2023/08/24 06:48:37;;;;;;;4.97;2.20;;;;;;;25.71;76.74;94724.31;4958257;29;20472;-88
2023/08/24 06:51:02;;;;;;;3.03;2.33;;;;;;;25.81;77.82;94718.34;4941218;29;20063;-88
2023/08/24 06:53:28;;;;;;;3.47;2.50;;;;;;;25.90;78.54;94720.03;4923394;29;20468;-88
2023/08/24 06:55:57;;;;;;;4.65;2.55;;;;;;;25.99;76.13;94723.25;4942017;29;20042;-88
2023/08/24 06:58:22;;;;;;;2.85;2.00;;;;;;;26.01;79.31;94714.84;4942234;29;20031;-88
2023/08/24 07:00:50;;;;;;;6.65;2.35;;;;;;;26.19;79.54;94720.53;4941641;29;20157;-87
2023/08/24 07:03:19;;;;;;;6.75;5.60;;;;;;;26.19;86.30;94720.53;4942519;29;20509;-88
2023/08/24 07:05:45;;;;;;;6.53;2.60;;;;;;;26.47;87.06;94719.41;4941617;29;20023;-88
2023/08/24 07:08:10;;;;;;;4.95;2.47;;;;;;;26.03;92.04;94723.31;4965741;28;20038;-88
2023/08/24 07:10:38;;;;;;;5.18;2.40;;;;;;;26.38;88.63;94717.75;4959155;29;20374;-88
2023/08/24 07:13:06;;;;;;;3.50;2.60;;;;;;;26.44;86.37;94715.53;4941957;29;20038;-88
2023/08/24 07:15:49;;;;;;;;;;;;;;;;;;;;;
2023/08/24 07:18:31;;;;;;;6.78;2.53;;;;;;;26.22;95.50;94715.22;4943154;29;20031;-88
2023/08/24 07:21:16;;;;;;;;;;;;;;;;;;;;;
2023/08/24 07:23:59;;;;;;;;;;;;;;;;;;;;;
2023/08/24 07:26:52;;;;;;;6.10;2.63;;;;;;;26.56;91.11;94709.19;4943120;29;20028;-87
2023/08/24 07:29:18;;;;;;;9.40;2.78;;;;;;;26.76;93.27;94711.75;4958866;29;20035;-87
2023/08/24 07:31:43;;;;;;;26.40;3.08;;;;;;;26.86;92.59;94716.53;4941875;29;20424;-88
2023/08/24 07:34:09;;;;;;;7.93;2.63;;;;;;;26.91;89.85;94707.41;4942159;29;20034;-87
2023/08/24 07:36:34;;;;;;;9.77;2.80;;;;;;;26.61;92.29;94713.47;4941753;29;20027;-87
2023/08/24 07:39:02;;;;;;;20.65;3.03;;;;;;;26.62;87.69;94709.66;4926092;29;20463;-88
2023/08/24 07:41:29;;;;;;;5.82;2.63;;;;;;;26.64;86.81;94715.44;4958718;29;20031;-87
2023/08/24 07:43:55;;;;;;;4.32;2.63;;;;;;;26.85;85.54;94725.72;4942221;29;20073;-87
2023/08/24 07:46:23;;;;;;;5.95;2.63;;;;;;;27.21;83.92;94718.13;4941903;29;20066;-87
2023/08/24 07:48:48;;;;;;;3.60;2.90;;;;;;;26.89;83.60;94715.81;4958863;29;20082;-88
2023/08/24 07:51:16;;;;;;;5.82;2.63;;;;;;;26.87;77.96;94715.41;4958710;29;20376;-87
2023/08/24 07:53:42;;;;;;;7.32;3.15;;;;;;;27.09;71.96;94716.44;4926090;29;20073;-88
2023/08/24 07:56:07;;;;;;;6.22;2.85;;;;;;;27.31;83.45;94715.94;4925959;29;20134;-88
2023/08/24 07:58:33;;;;;;;4.55;3.03;;;;;;;27.38;80.40;94716.00;4941690;29;20031;-86
2023/08/24 08:01:01;;;;;;;7.85;2.78;;;;;;;27.60;85.27;94708.97;4941558;29;20039;-88
2023/08/24 08:03:27;;;;;;;6.00;3.03;;;;;;;27.86;81.30;94728.81;4941648;29;20031;-88
2023/08/24 08:05:52;;;;;;;6.28;2.58;;;;;;;27.79;82.62;94724.16;4941493;29;20023;-88
2023/08/24 08:08:18;;;;;;;5.50;3.00;;;;;;;27.73;78.96;94730.22;4941590;29;20386;-89
2023/08/24 08:10:43;;;;;;;5.30;2.83;;;;;;;27.88;78.59;94723.09;4941510;29;20035;-89
2023/08/24 08:13:11;;;;;;;8.07;2.83;;;;;;;28.04;80.63;94720.91;4941385;29;20126;-88
2023/08/24 08:15:38;;;;;;;6.40;2.63;;;;;;;28.19;74.18;94721.06;4941932;29;20038;-88
2023/08/24 08:18:04;;;;;;;9.25;3.13;;;;;;;28.32;67.78;94725.03;4941533;29;20027;-85
2023/08/24 08:20:30;;;;;;;8.35;3.28;;;;;;;28.59;65.65;94719.44;4941180;29;20122;-85
2023/08/24 08:22:55;;;;;;;10.00;2.80;;;;;;;28.83;66.60;94714.56;4925167;29;20470;-86
2023/08/24 08:25:22;;;;;;;6.05;3.05;;;;;;;28.86;72.10;94719.25;4941350;29;20042;-86
2023/08/24 08:27:48;;;;;;;7.45;2.78;;;;;;;29.10;68.85;94721.66;4941491;29;20031;-84
2023/08/24 08:30:15;;;;;;;11.80;2.83;;;;;;;29.14;70.90;94714.34;4941108;29;20039;-83
2023/08/24 08:32:40;;;;;;;7.40;2.67;;;;;;;29.09;67.12;94723.56;4943616;29;20066;-82
2023/08/24 08:35:06;;;;;;;11.20;4.75;;;;;;;29.19;64.61;94716.66;4944829;29;20031;-83
2023/08/24 08:37:32;;;;;;;8.27;2.70;;;;;;;29.29;68.09;94724.03;4944442;29;20045;-83
2023/08/24 08:39:58;;;;;;;6.13;2.78;;;;;;;29.45;55.55;94718.34;4944440;29;20031;-84
2023/08/24 08:42:23;;;;;;;5.90;2.40;;;;;;;29.67;55.38;94723.03;4937324;29;20393;-83
2023/08/24 08:44:49;;;;;;;5.72;2.53;;;;;;;29.85;57.33;94723.84;4940646;29;20038;-83
2023/08/24 08:47:15;;;;;;;14.32;2.65;;;;;;;29.88;52.74;94727.69;4944560;29;20038;-82
2023/08/24 08:49:42;;;;;;;5.72;2.42;;;;;;;30.13;56.23;94732.38;4944742;29;20130;-82
2023/08/24 08:52:08;;;;;;;6.30;2.40;;;;;;;30.04;71.39;94735.44;4944208;29;20043;-83
2023/08/24 08:54:33;;;;;;;9.35;2.20;;;;;;;30.30;53.30;94731.63;4944240;29;20043;-83
2023/08/24 08:56:59;;;;;;;6.22;2.47;;;;;;;30.40;66.43;94726.56;4961087;29;20717;-82
2023/08/24 08:59:30;;;;;;;4.72;2.03;;;;;;;30.46;56.06;94735.84;4928481;29;20069;-81
2023/08/24 09:01:57;;;;;;;5.55;1.70;;;;;;;30.57;48.45;94733.13;4928672;29;20031;-82
2023/08/24 09:04:24;;;;;;;5.45;2.25;;;;;;;30.71;45.32;94733.13;4944318;29;20035;-82
2023/08/24 09:06:49;;;;;;;4.68;2.00;;;;;;;30.92;45.62;94731.56;4944215;29;20057;-83
2023/08/24 09:09:15;;;;;;;3.33;2.17;;;;;;;31.03;47.70;94734.22;4961128;29;20039;-83
2023/08/24 09:11:42;;;;;;;5.22;2.20;;;;;;;30.96;50.20;94729.63;4926989;29;20081;-82
2023/08/24 09:14:07;;;;;;;5.47;2.05;;;;;;;31.19;47.63;94731.06;4942065;29;20072;-82
2023/08/24 09:16:33;;;;;;;2.92;1.95;;;;;;;30.99;45.88;94728.06;4924973;29;20082;-82
2023/08/24 09:18:58;;;;;;;5.00;2.17;;;;;;;31.16;47.34;94724.53;4910998;29;20050;-82
2023/08/24 09:21:24;;;;;;;6.88;2.17;;;;;;;31.21;44.91;94719.84;4961055;29;20359;-82
2023/08/24 09:23:55;;;;;;;3.60;2.08;;;;;;;31.36;52.28;94723.31;4944060;29;20031;-83
2023/08/24 09:26:34;;;;;;;3.53;2.10;;;;;;;31.27;44.26;94721.00;4944023;29;20039;-82
2023/08/24 09:29:00;;;;;;;2.00;1.80;;;;;;;31.47;42.37;94713.19;4925329;29;20039;-82
2023/08/24 09:31:39;;;;;;;3.35;2.20;;;;;;;31.16;39.81;94711.00;4934699;29;20126;-83
2023/08/24 09:34:05;;;;;;;9.23;2.50;;;;;;;31.44;42.25;94711.28;4924900;29;20073;-83
2023/08/24 09:36:35;;;;;;;5.55;2.15;;;;;;;31.55;41.04;94705.78;4908667;29;20036;-83
2023/08/24 09:39:05;;;;;;;5.32;2.03;;;;;;;31.63;43.73;94717.34;4924756;29;20059;-80
2023/08/24 09:41:40;;;;;;;3.55;2.17;;;;;;;31.25;38.72;94712.53;4946802;29;20086;-82
2023/08/24 09:44:06;;;;;;;1.98;1.77;;;;;;;31.08;40.09;94706.75;4926883;29;20086;-82
2023/08/24 09:46:31;;;;;;;4.57;2.13;;;;;;;31.42;38.96;94706.28;4942101;29;20432;-82
2023/08/24 09:49:00;;;;;;;4.60;2.40;;;;;;;31.63;39.76;94710.03;4942609;29;20058;-82
2023/08/24 09:51:26;;;;;;;2.70;2.30;;;;;;;31.51;38.79;94702.34;4960548;29;20034;-82
2023/08/24 09:53:52;;;;;;;5.00;2.50;;;;;;;31.62;40.75;94700.34;4959379;29;20035;-82
2023/08/24 09:56:19;;;;;;;10.25;2.05;;;;;;;31.53;39.63;94703.50;4959325;29;20035;-82
2023/08/24 09:58:46;;;;;;;4.75;2.40;;;;;;;31.77;42.13;94705.69;4957933;29;20068;-83
2023/08/24 10:01:11;;;;;;;5.22;2.30;;;;;;;31.94;43.28;94702.09;4943285;29;20401;-84
2023/08/24 10:03:40;;;;;;;3.45;2.33;;;;;;;31.83;42.76;94704.09;4927440;29;20031;-83
2023/08/24 10:06:07;;;;;;;4.15;2.38;;;;;;;32.01;42.03;94695.88;4927315;29;20074;-83
2023/08/24 10:08:36;;;;;;;6.10;2.55;;;;;;;32.25;40.13;94687.94;4942693;29;20445;-83
2023/08/24 10:11:03;;;;;;;4.07;2.70;;;;;;;32.34;42.18;94690.19;4943281;29;20063;-87
2023/08/24 10:13:44;;;;;;;6.68;3.08;;;;;;;32.34;41.52;94692.91;4924211;29;20035;-87
2023/08/24 10:16:12;;;;;;;4.43;2.33;;;;;;;32.13;39.65;94694.59;4933416;29;20062;-91
2023/08/24 10:18:40;;;;;;;5.13;2.95;;;;;;;32.30;38.82;94693.69;4927012;29;20035;-90
2023/08/24 10:21:06;;;;;;;4.00;2.30;;;;;;;32.30;39.08;94682.84;4942935;29;20070;-89
2023/08/24 10:23:31;;;;;;;4.53;2.70;;;;;;;32.49;40.71;94688.91;4943158;29;20429;-90
2023/08/24 10:25:57;;;;;;;5.18;3.15;;;;;;;32.48;40.37;94686.59;4926901;29;20122;-89
2023/08/24 10:28:25;;;;;;;6.32;2.60;;;;;;;32.26;40.42;94684.81;4942661;29;20417;-90
2023/08/24 10:30:51;;;;;;;8.68;3.40;;;;;;;32.52;40.63;94679.97;4927018;29;20332;-90
2023/08/24 10:33:17;;;;;;;3.75;2.50;;;;;;;32.71;40.48;94677.81;4959832;29;20031;-90
2023/08/24 10:35:43;;;;;;;5.07;3.38;;;;;;;32.89;40.07;94679.59;4942655;29;20047;-88
2023/08/24 10:38:25;;;;;;;3.60;2.40;;;;;;;33.04;40.70;94680.22;4926578;29;20027;-90
2023/08/24 10:40:51;;;;;;;4.78;2.45;;;;;;;32.95;39.01;94675.28;4942640;29;20039;-89
2023/08/24 10:43:17;;;;;;;3.60;2.33;;;;;;;32.70;40.63;94671.66;4959610;29;20027;-90
2023/08/24 10:45:56;;;;;;;6.13;2.80;;;;;;;32.50;40.89;94670.72;4926514;29;20456;-89
2023/08/24 10:48:27;;;;;;;10.90;2.90;;;;;;;32.47;42.05;94666.84;4942322;29;20345;-89
2023/08/24 10:51:25;;;;;;;5.93;2.67;;;;;;;32.31;41.96;94661.94;4926425;29;20042;-89
2023/08/24 10:53:59;;;;;;;5.38;2.90;;;;;;;32.36;42.30;94666.97;4959399;29;20027;-88
2023/08/24 10:56:30;;;;;;;3.38;2.50;;;;;;;32.14;41.38;94669.06;4942418;29;20042;-88
2023/08/24 10:59:15;;;;;;;5.50;2.90;;;;;;;32.35;40.56;94656.50;4959113;29;20437;-88
2023/08/24 11:01:42;;;;;;;6.25;2.65;;;;;;;32.71;40.13;94665.03;4941966;29;20031;-90
2023/08/24 11:04:08;;;;;;;8.93;2.78;;;;;;;32.69;39.58;94661.97;4926421;29;20038;-88
2023/08/24 11:06:34;;;;;;;7.68;2.80;;;;;;;33.01;42.21;94665.53;4942484;29;20039;-91
2023/08/24 11:09:13;;;;;;;3.80;2.58;;;;;;;33.28;41.18;94659.34;4941950;29;20442;-90
2023/08/24 11:11:39;;;;;;;3.83;2.60;;;;;;;32.96;42.31;94660.53;4926699;29;20027;-89
2023/08/24 11:14:21;;;;;;;5.65;2.67;;;;;;;33.15;40.13;94661.84;4941840;29;20046;-87
2023/08/24 11:16:51;;;;;;;6.97;3.00;;;;;;;32.90;39.96;94657.50;4926620;29;20030;-89
2023/08/24 11:19:16;;;;;;;3.75;2.60;;;;;;;33.14;40.88;94650.25;4926735;29;20019;-89
2023/08/24 11:21:48;;;;;;;3.90;3.00;;;;;;;33.33;40.73;94652.69;4942495;29;20336;-89
2023/08/24 11:27:49;;;;;;;;;;;;;;;;;;;;;
2023/08/24 11:31:14;;;;;;;;;;;;;;;;;;;;;
2023/08/24 11:33:53;;;;;;;6.82;2.80;;;;;;;32.85;41.99;94647.06;4956517;29;20045;-89
2023/08/24 11:36:28;;;;;;;;;;;;;;;;;;;;;
2023/08/24 11:38:59;;;;;;;9.13;2.78;;;;;;;33.20;41.76;94641.63;4937736;29;20467;-88
2023/08/24 11:41:34;;;;;;;6.85;2.95;;;;;;;32.92;41.55;94638.09;4924408;29;20035;-87
2023/08/24 11:44:21;;;;;;;;;;;;;;;;;;;;;
2023/08/24 11:46:57;;;;;;;3.80;2.63;;;;;;;33.22;41.93;94634.63;4944187;29;20027;-88
2023/08/24 11:49:33;;;;;;;;;;;;;;;;;;;;;